Portland International Airport
KPDX : now visible

Airfield :











YOU CAN JOIN US ON...

 
LOGIN :

Register | Disclaimer

   EN    FR    IT 

 









Legend :    VFR   Marginal VFR   IFR   Intensive IFR   Very Intensive IFR
Visi :
Ceiling :
>= 8 km
>= 3000ft
5 to 8 km
1000 to 3000 ft
1500m to 5 km
500 to 1000 ft
800 to 1500m
200 to 500 ft
< 800m
< 200 ft
Symbols :   Thunderstorms  Fog  Heavy snow  Heavy precipitations  Wind > 20 kt






- Airport Elevation : 31 ft
- IATA code : PDX


KPDX - Portland International

CURRENT METAR :
  • 192053Z 30006KT 10SM SCT025 BKN050 17/10 A3021 RMK AO2 SLP228 60000 T01720100 58006

EXPIRED METARs :
  • 191953Z 00000KT 10SM SCT026 OVC042 17/11 A3022 RMK AO2 SLP233 T01720111
  • 191853Z 27004KT 10SM FEW021 BKN035 BKN050 16/11 A3023 RMK AO2 RAE29 SLP236 P0000 T01610111

TAF KPDX
Valid from the 19 at 21:00 until the 20 at 18:00 UTC


192108Z 1921/2018 30005KT P6SM SCT040 BKN060
FM200600 VRB03KT P6SM BCFG BKN080
FM200900 00000KT P6SM BCFG BKN027
FM201200 00000KT 6SM BR SCT009 BKN018
FM201600 VRB03KT P6SM VCFG BKN035
KZSE FIR / North America



MET'MAP, your aeronautical weather chart ! - Copyright ORBIFLY December 2007 - Disclaimer

ORBIFLY MET'MAP TEAM :

Programming & Development : Alexandra Zaïnal
Concept & original design : Baudouin d'Aumeries
Assistance for programming : Marc-Olivier Méhu
Technical & hardware support : Manuel Goepfert

Contact : metmap@orbifly.com




SOURCES & CREDITS :

   NOAA       Earth
Advisory